createdAt,value
2018-06-13T00:01:16.016Z,14.60
2018-06-13T00:03:46.167Z,16.10
2018-06-13T00:06:16.528Z,17.00
2018-06-13T00:08:46.499Z,15.03
2018-06-13T00:11:16.634Z,16.83
2018-06-13T00:13:46.527Z,17.07
2018-06-13T00:16:16.559Z,16.17
2018-06-13T00:18:46.621Z,17.03
2018-06-13T00:21:16.562Z,20.20
2018-06-13T00:23:46.562Z,15.70
2018-06-13T00:26:16.624Z,17.43
2018-06-13T00:28:46.915Z,16.80
2018-06-13T00:31:16.825Z,16.50
2018-06-13T00:33:47.151Z,17.47
2018-06-13T00:36:17.295Z,14.77
2018-06-13T00:38:47.553Z,16.53
2018-06-13T00:41:17.537Z,14.73
2018-06-13T00:43:47.939Z,19.20
2018-06-13T00:46:18.277Z,15.33
2018-06-13T00:48:48.718Z,15.13
2018-06-13T00:51:18.983Z,15.33
2018-06-13T00:53:49.204Z,13.73
2018-06-13T00:56:32.705Z,14.37
2018-06-13T00:59:03.632Z,13.93
2018-06-13T01:01:33.804Z,15.30
2018-06-13T01:04:03.786Z,15.60
2018-06-13T01:06:33.727Z,18.00
2018-06-13T01:09:04.279Z,20.00
2018-06-13T01:11:34.231Z,16.77
2018-06-13T01:14:04.349Z,27.90
2018-06-13T01:16:34.461Z,35.27
2018-06-13T01:19:04.485Z,39.70
2018-06-13T01:21:34.642Z,33.17
2018-06-13T01:24:04.614Z,23.97
2018-06-13T01:26:34.714Z,23.77
2018-06-13T01:29:04.782Z,23.67
2018-06-13T01:31:34.965Z,23.32
2018-06-13T01:34:04.957Z,22.80
2018-06-13T01:36:34.996Z,18.97
2018-06-13T01:39:06.876Z,18.43
2018-06-13T01:41:36.955Z,19.30
2018-06-13T01:44:07.069Z,21.57
2018-06-13T01:46:37.217Z,22.67
2018-06-13T01:49:07.381Z,20.53
2018-06-13T01:51:37.677Z,21.43
2018-06-13T01:54:07.811Z,17.97
2018-06-13T01:56:38.313Z,17.83
2018-06-13T01:59:08.544Z,16.77
2018-06-13T02:01:38.495Z,19.23
2018-06-13T02:04:08.718Z,17.77
2018-06-13T02:06:39.016Z,21.47
2018-06-13T02:09:09.305Z,20.87
2018-06-13T02:11:39.448Z,18.83
2018-06-13T02:14:11.350Z,19.50
2018-06-13T02:16:42.369Z,20.63
2018-06-13T02:19:12.384Z,17.80
2018-06-13T02:21:42.615Z,17.73
2018-06-13T02:24:12.919Z,15.67
2018-06-13T02:26:43.087Z,16.80
2018-06-13T02:29:13.154Z,18.53
2018-06-13T02:31:43.177Z,16.00
2018-06-13T02:34:13.410Z,16.10
2018-06-13T02:36:43.416Z,16.77
2018-06-13T02:39:15.301Z,16.60
2018-06-13T02:41:45.827Z,16.97
2018-06-13T02:44:16.052Z,22.10
2018-06-13T02:46:46.299Z,20.73
2018-06-13T02:49:16.353Z,16.87
2018-06-13T02:51:46.465Z,17.50
2018-06-13T02:54:16.612Z,18.23
2018-06-13T02:56:46.739Z,17.50
2018-06-13T02:59:16.825Z,17.90
2018-06-13T03:01:46.773Z,19.63
2018-06-13T03:04:16.977Z,17.33
2018-06-13T03:06:47.107Z,19.00
2018-06-13T03:09:17.037Z,17.17
2018-06-13T03:11:47.239Z,18.23
2018-06-13T03:14:17.679Z,17.70
2018-06-13T03:16:47.712Z,19.47
2018-06-13T03:19:17.630Z,17.07
2018-06-13T03:21:47.730Z,16.07
2018-06-13T03:24:17.821Z,15.67
2018-06-13T03:26:47.676Z,20.85
2018-06-13T03:29:17.791Z,17.87
2018-06-13T03:31:47.806Z,16.70
2018-06-13T03:34:17.716Z,15.47
2018-06-13T03:36:48.039Z,15.93
2018-06-13T03:39:18.082Z,16.47
2018-06-13T03:41:48.091Z,18.23
2018-06-13T03:44:18.209Z,16.37
2018-06-13T03:46:48.476Z,15.60
2018-06-13T03:49:18.685Z,16.47
2018-06-13T03:51:48.774Z,15.77
2018-06-13T03:54:19.073Z,18.03
2018-06-13T03:56:49.668Z,18.20
2018-06-13T03:59:19.531Z,17.87
2018-06-13T04:01:49.595Z,17.07
2018-06-13T04:04:19.705Z,21.10
2018-06-13T04:06:49.831Z,16.97
2018-06-13T04:09:19.750Z,15.80
2018-06-13T04:11:49.869Z,16.70
2018-06-13T04:14:20.062Z,15.43
2018-06-13T04:16:49.990Z,17.47
2018-06-13T04:19:20.437Z,16.50
2018-06-13T04:21:51.430Z,16.80
2018-06-13T04:24:21.523Z,14.53
2018-06-13T04:26:51.426Z,14.90
2018-06-13T04:29:21.445Z,13.60
2018-06-13T04:31:51.655Z,15.95
2018-06-13T04:34:21.877Z,15.43
2018-06-13T04:36:52.248Z,17.63
2018-06-13T04:39:22.410Z,17.13
2018-06-13T04:41:52.489Z,15.73
2018-06-13T04:44:22.324Z,17.53
2018-06-13T04:46:52.483Z,18.03
2018-06-13T04:49:22.462Z,14.13
2018-06-13T04:51:52.442Z,16.07
2018-06-13T04:54:23.652Z,15.33
2018-06-13T04:56:54.128Z,16.47
2018-06-13T04:59:24.018Z,15.43
2018-06-13T05:01:54.526Z,14.63
2018-06-13T05:04:24.517Z,17.00
2018-06-13T05:06:54.666Z,14.23
2018-06-13T05:09:24.758Z,14.47
2018-06-13T05:11:54.793Z,14.00
2018-06-13T05:14:25.434Z,13.90
2018-06-13T05:16:56.383Z,18.10
2018-06-13T05:19:26.768Z,14.90
2018-06-13T05:21:56.871Z,13.83
2018-06-13T05:24:26.964Z,13.53
2018-06-13T05:26:57.039Z,17.50
2018-06-13T05:29:27.234Z,17.27
2018-06-13T05:31:57.419Z,15.40
2018-06-13T05:34:27.514Z,15.50
2018-06-13T05:36:57.779Z,14.63
2018-06-13T05:39:28.180Z,15.43
2018-06-13T05:41:58.236Z,13.00
2018-06-13T05:44:28.737Z,12.77
2018-06-13T05:46:59.094Z,12.70
2018-06-13T05:49:29.291Z,12.60
2018-06-13T05:51:59.504Z,13.27
2018-06-13T05:54:29.409Z,12.93
2018-06-13T05:56:59.626Z,14.53
2018-06-13T06:00:14.694Z,12.97
2018-06-13T06:02:45.160Z,11.53
2018-06-13T06:05:15.241Z,12.07
2018-06-13T06:07:45.188Z,13.10
2018-06-13T06:10:15.350Z,12.80
2018-06-13T06:12:45.623Z,13.17
2018-06-13T06:15:16.612Z,12.73
2018-06-13T06:17:46.891Z,11.63
2018-06-13T06:20:16.996Z,11.77
2018-06-13T06:22:47.599Z,13.07
2018-06-13T06:25:17.819Z,13.00
2018-06-13T06:27:47.816Z,13.67
2018-06-13T06:30:18.015Z,13.63
2018-06-13T06:32:47.918Z,11.60
2018-06-13T06:35:17.851Z,12.20
2018-06-13T06:37:47.880Z,15.63
2018-06-13T06:40:18.237Z,11.43
2018-06-13T06:42:49.175Z,12.30
2018-06-13T06:45:20.272Z,13.60
2018-06-13T06:47:50.579Z,14.67
2018-06-13T06:50:20.657Z,13.87
2018-06-13T06:52:50.584Z,12.17
2018-06-13T06:55:20.725Z,10.90
2018-06-13T06:57:51.865Z,11.77
2018-06-13T07:00:22.079Z,12.00
2018-06-13T07:02:53.175Z,10.30
2018-06-13T07:05:23.422Z,12.37
2018-06-13T07:07:53.432Z,10.87
2018-06-13T07:10:23.363Z,10.43
2018-06-13T07:12:54.373Z,9.50
2018-06-13T07:15:24.533Z,9.57
2018-06-13T07:17:54.755Z,9.93
2018-06-13T07:20:24.846Z,10.73
2018-06-13T07:22:55.067Z,11.80
2018-06-13T07:25:25.405Z,9.33
2018-06-13T07:27:55.419Z,11.63
2018-06-13T07:30:25.400Z,10.57
2018-06-13T07:32:56.000Z,9.20
2018-06-13T07:35:26.103Z,9.97
2018-06-13T07:37:56.421Z,10.63
2018-06-13T07:40:26.763Z,8.90
2018-06-13T07:42:56.994Z,9.13
2018-06-13T07:45:27.054Z,9.50
2018-06-13T07:47:57.493Z,10.93
2018-06-13T07:50:27.728Z,10.47
2018-06-13T07:52:58.076Z,10.03
2018-06-13T07:55:28.117Z,8.93
2018-06-13T07:57:58.308Z,11.10
2018-06-13T08:00:28.565Z,15.80
2018-06-13T08:02:58.443Z,9.37
2018-06-13T08:05:28.651Z,9.53
2018-06-13T08:07:58.733Z,9.73
2018-06-13T08:10:28.740Z,8.47
2018-06-13T08:12:58.994Z,10.47
2018-06-13T08:15:29.188Z,8.33
2018-06-13T08:17:59.256Z,8.00
2018-06-13T08:20:29.358Z,9.10
2018-06-13T08:22:59.529Z,7.23
2018-06-13T08:25:29.796Z,7.63
2018-06-13T08:27:59.947Z,8.83
2018-06-13T08:30:30.354Z,9.77
2018-06-13T08:33:00.432Z,9.97
2018-06-13T08:35:30.356Z,8.13
2018-06-13T08:38:00.463Z,13.87
2018-06-13T08:40:30.584Z,9.37
2018-06-13T08:43:00.558Z,10.87
2018-06-13T08:45:30.731Z,9.23
2018-06-13T08:48:00.686Z,13.93
2018-06-13T08:50:30.862Z,14.13
2018-06-13T08:53:01.114Z,9.13
2018-06-13T08:55:31.359Z,10.00
2018-06-13T08:58:01.439Z,7.63
2018-06-13T09:00:31.528Z,10.50
2018-06-13T09:03:01.560Z,8.73
2018-06-13T09:05:31.619Z,15.67
2018-06-13T09:08:01.941Z,9.50
2018-06-13T09:10:32.443Z,8.63
2018-06-13T09:13:02.655Z,8.20
2018-06-13T09:15:33.877Z,11.63
2018-06-13T09:18:04.058Z,8.00
2018-06-13T09:20:33.835Z,8.57
2018-06-13T09:23:04.768Z,9.97
2018-06-13T09:25:34.936Z,13.17
2018-06-13T09:28:05.127Z,12.97
2018-06-13T09:30:35.040Z,9.00
2018-06-13T09:33:04.962Z,8.80
2018-06-13T09:35:35.709Z,11.07
2018-06-13T09:38:06.130Z,10.73
2018-06-13T09:40:37.310Z,9.83
2018-06-13T09:43:07.485Z,9.50
2018-06-13T09:45:37.673Z,8.30
2018-06-13T09:48:08.221Z,9.57
2018-06-13T09:50:38.308Z,9.63
2018-06-13T09:53:08.479Z,13.20
2018-06-13T09:55:38.469Z,10.03
2018-06-13T09:58:08.529Z,8.87
2018-06-13T10:00:44.391Z,7.27
2018-06-13T10:03:14.719Z,7.17
2018-06-13T10:05:44.961Z,6.13
2018-06-13T10:08:15.031Z,9.47
2018-06-13T10:10:45.463Z,8.07
2018-06-13T10:13:15.684Z,9.90
2018-06-13T10:15:45.657Z,11.03
2018-06-13T10:18:15.614Z,12.07
2018-06-13T10:20:45.759Z,13.60
2018-06-13T10:23:15.706Z,10.03
2018-06-13T10:25:45.760Z,9.03
2018-06-13T10:28:15.971Z,9.50
2018-06-13T10:30:46.088Z,10.23
2018-06-13T10:33:16.226Z,9.37
2018-06-13T10:35:46.674Z,8.50
2018-06-13T10:38:16.771Z,10.93
2018-06-13T10:40:47.031Z,11.23
2018-06-13T10:43:17.175Z,7.43
2018-06-13T10:45:47.294Z,9.70
2018-06-13T10:48:17.396Z,9.43
2018-06-13T10:50:47.466Z,8.40
2018-06-13T10:53:17.496Z,8.83
2018-06-13T10:55:47.819Z,12.33
2018-06-13T10:58:17.839Z,9.77
2018-06-13T11:00:47.909Z,10.77
2018-06-13T11:03:17.760Z,6.90
2018-06-13T11:05:48.053Z,10.47
2018-06-13T11:08:18.212Z,10.03
2018-06-13T11:10:48.375Z,9.17
2018-06-13T11:13:18.595Z,8.80
2018-06-13T11:15:48.712Z,9.83
2018-06-13T11:18:18.734Z,12.67
2018-06-13T11:20:48.616Z,8.40
2018-06-13T11:23:18.746Z,10.00
2018-06-13T11:25:48.720Z,7.60
2018-06-13T11:28:18.968Z,9.57
2018-06-13T11:30:48.918Z,10.10
2018-06-13T11:33:19.390Z,10.10
2018-06-13T11:35:49.381Z,8.83
2018-06-13T11:38:19.413Z,8.90
2018-06-13T11:40:49.503Z,8.13
2018-06-13T11:43:19.454Z,9.67
2018-06-13T11:45:49.383Z,11.37
2018-06-13T11:48:19.738Z,9.77
2018-06-13T11:50:50.208Z,8.67
2018-06-13T11:53:20.235Z,11.83
2018-06-13T11:55:50.346Z,8.00
2018-06-13T11:58:20.890Z,9.67
2018-06-13T12:00:50.880Z,9.30
2018-06-13T12:03:21.924Z,8.23
2018-06-13T12:05:52.269Z,10.47
2018-06-13T12:08:22.390Z,10.10
2018-06-13T12:10:52.989Z,7.70
2018-06-13T12:13:23.352Z,10.67
2018-06-13T12:15:53.807Z,9.27
2018-06-13T12:18:24.017Z,9.33
2018-06-13T12:20:54.171Z,10.07
2018-06-13T12:23:24.559Z,12.03
2018-06-13T12:25:54.860Z,11.93
2018-06-13T12:28:25.114Z,10.90
2018-06-13T12:30:55.118Z,11.83
2018-06-13T12:33:25.320Z,11.13
2018-06-13T12:35:55.541Z,11.47
2018-06-13T12:38:25.715Z,9.67
2018-06-13T12:40:55.985Z,9.53
2018-06-13T12:43:25.964Z,9.93
2018-06-13T12:45:55.916Z,9.47
2018-06-13T12:48:25.851Z,8.97
2018-06-13T12:50:55.782Z,9.50
2018-06-13T12:53:25.747Z,10.73
2018-06-13T12:55:56.060Z,10.43
2018-06-13T12:58:26.213Z,9.10
2018-06-13T13:00:56.259Z,8.00
2018-06-13T13:03:26.291Z,11.33
2018-06-13T13:05:56.587Z,7.43
2018-06-13T13:08:26.849Z,9.03
2018-06-13T13:10:57.046Z,8.10
2018-06-13T13:13:27.148Z,9.47
2018-06-13T13:15:56.985Z,7.37
2018-06-13T13:18:26.986Z,9.67
2018-06-13T13:20:56.944Z,7.60
2018-06-13T13:23:27.071Z,7.60
2018-06-13T13:25:57.217Z,8.40
2018-06-13T13:28:28.541Z,8.20
2018-06-13T13:30:58.599Z,8.40
2018-06-13T13:33:28.773Z,13.67
2018-06-13T13:35:59.764Z,7.50
2018-06-13T13:38:30.105Z,10.57
2018-06-13T13:41:00.223Z,10.17
2018-06-13T13:43:30.504Z,10.57
2018-06-13T13:46:00.793Z,11.73
2018-06-13T13:48:30.865Z,13.07
2018-06-13T13:51:01.109Z,12.27
2018-06-13T13:53:31.196Z,12.17
2018-06-13T13:56:01.311Z,12.90
2018-06-13T13:58:31.702Z,12.43
2018-06-13T14:01:01.977Z,11.93
2018-06-13T14:03:32.184Z,11.03
2018-06-13T14:06:02.636Z,11.37
2018-06-13T14:08:32.784Z,12.83
2018-06-13T14:11:03.042Z,13.27
2018-06-13T14:13:33.139Z,13.23
2018-06-13T14:16:03.314Z,10.87
2018-06-13T14:18:33.738Z,10.00
2018-06-13T14:21:03.696Z,12.50
2018-06-13T14:23:33.761Z,11.17
2018-06-13T14:26:03.842Z,11.73
2018-06-13T14:28:34.493Z,10.93
2018-06-13T14:31:04.622Z,9.23
2018-06-13T14:33:34.840Z,9.07
2018-06-13T14:36:04.875Z,8.13
2018-06-13T14:38:35.366Z,9.67
2018-06-13T14:41:06.045Z,11.40
2018-06-13T14:43:36.245Z,8.53
2018-06-13T14:46:07.502Z,10.13
2018-06-13T14:48:37.718Z,10.47
2018-06-13T14:51:07.739Z,9.07
2018-06-13T14:53:37.974Z,9.83
2018-06-13T14:56:13.138Z,11.33
2018-06-13T14:58:43.424Z,9.23
2018-06-13T15:01:13.566Z,9.00
2018-06-13T15:03:43.901Z,9.67
2018-06-13T15:06:14.202Z,9.00
2018-06-13T15:08:44.386Z,8.00
2018-06-13T15:11:14.833Z,9.37
2018-06-13T15:13:44.992Z,12.60
2018-06-13T15:16:15.039Z,11.43
2018-06-13T15:18:45.500Z,10.90
2018-06-13T15:21:15.643Z,9.13
2018-06-13T15:23:45.640Z,11.27
2018-06-13T15:26:15.779Z,9.20
2018-06-13T15:28:46.019Z,12.53
2018-06-13T15:31:16.105Z,12.57
2018-06-13T15:33:46.221Z,10.47
2018-06-13T15:36:16.525Z,9.80
2018-06-13T15:38:46.812Z,10.73
2018-06-13T15:41:17.004Z,9.87
2018-06-13T15:43:47.194Z,9.73
2018-06-13T15:46:17.372Z,12.70
2018-06-13T15:48:47.937Z,9.53
2018-06-13T15:51:18.019Z,11.63
2018-06-13T15:53:48.128Z,10.50
2018-06-13T15:56:18.078Z,10.50
2018-06-13T15:58:48.409Z,11.77
2018-06-13T16:01:18.673Z,13.20
2018-06-13T16:03:48.704Z,11.60
2018-06-13T16:06:18.855Z,10.53
2018-06-13T16:08:49.083Z,10.37
2018-06-13T16:11:19.395Z,10.73
2018-06-13T16:13:49.297Z,10.20
2018-06-13T16:16:19.397Z,10.83
2018-06-13T16:18:49.396Z,11.40
2018-06-13T16:21:19.958Z,12.33
2018-06-13T16:23:49.992Z,10.87
2018-06-13T16:26:20.131Z,9.83
2018-06-13T16:28:50.612Z,11.10
2018-06-13T16:31:21.391Z,10.70
2018-06-13T16:33:51.425Z,10.97
2018-06-13T16:36:21.634Z,12.10
2018-06-13T16:38:52.646Z,10.70
2018-06-13T16:41:24.526Z,10.13
2018-06-13T16:43:56.033Z,13.67
2018-06-13T16:46:27.298Z,13.23
2018-06-13T16:48:59.040Z,14.17
2018-06-13T16:51:40.057Z,11.37
2018-06-13T16:54:16.759Z,12.60
2018-06-13T16:56:48.813Z,13.47
2018-06-13T16:59:21.845Z,13.37
2018-06-13T17:01:54.535Z,17.17
2018-06-13T17:04:27.371Z,14.50
2018-06-13T17:07:00.212Z,14.60
2018-06-13T17:09:33.061Z,18.43
2018-06-13T17:12:05.779Z,12.63
2018-06-13T17:14:38.779Z,13.93
2018-06-13T17:17:11.507Z,13.97
2018-06-13T17:19:44.538Z,12.43
2018-06-13T17:22:17.600Z,12.53
2018-06-13T17:24:50.431Z,17.03
2018-06-13T17:27:23.307Z,14.23
2018-06-13T17:29:57.055Z,12.47
2018-06-13T17:32:29.554Z,12.50
2018-06-13T17:35:02.495Z,15.03
2018-06-13T17:37:35.246Z,14.97
2018-06-13T17:40:08.305Z,14.90
2018-06-13T17:42:41.226Z,17.03
2018-06-13T17:45:13.968Z,17.77
2018-06-13T17:47:46.869Z,17.33
2018-06-13T17:50:19.871Z,15.73
2018-06-13T17:52:52.870Z,12.60
2018-06-13T17:55:25.991Z,14.60
2018-06-13T17:57:59.082Z,15.47
2018-06-13T18:00:32.033Z,15.43
2018-06-13T18:03:04.827Z,16.67
2018-06-13T18:05:37.588Z,13.43
2018-06-13T18:08:11.828Z,16.93
2018-06-13T18:10:44.838Z,14.40
2018-06-13T18:13:18.568Z,12.53
2018-06-13T18:15:51.844Z,15.40
2018-06-13T18:18:24.603Z,16.57
2018-06-13T18:20:57.707Z,16.60
2018-06-13T18:23:31.585Z,14.00
2018-06-13T18:26:04.470Z,14.40
2018-06-13T18:28:37.615Z,14.87
2018-06-13T18:31:11.685Z,17.60
2018-06-13T18:33:46.258Z,16.40
2018-06-13T18:36:19.787Z,15.37
2018-06-13T18:38:52.384Z,17.67
2018-06-13T18:41:25.214Z,17.97
2018-06-13T18:43:57.955Z,17.43
2018-06-13T18:46:30.551Z,16.10
2018-06-13T18:49:03.621Z,16.87
2018-06-13T18:51:36.562Z,17.57
2018-06-13T18:54:09.310Z,18.53
2018-06-13T18:56:42.362Z,15.63
2018-06-13T18:59:15.406Z,16.57
2018-06-13T19:01:48.193Z,17.03
2018-06-13T19:04:20.904Z,17.53
2018-06-13T19:06:54.096Z,16.23
2018-06-13T19:09:27.344Z,19.10
2018-06-13T19:12:01.185Z,23.62
2018-06-13T19:14:33.757Z,17.33
2018-06-13T19:17:07.760Z,18.43
2018-06-13T19:19:42.105Z,18.30
2018-06-13T19:22:14.981Z,15.77
2018-06-13T19:24:47.912Z,14.60
2018-06-13T19:27:20.964Z,15.63
2018-06-13T19:29:53.934Z,15.90
2018-06-13T19:32:26.913Z,11.67
2018-06-13T19:35:00.033Z,10.97
2018-06-13T19:37:32.875Z,13.67
2018-06-13T19:40:05.805Z,13.23
2018-06-13T19:42:37.425Z,9.10
2018-06-13T19:45:08.659Z,10.63
2018-06-13T19:47:44.272Z,11.37
2018-06-13T19:50:15.219Z,9.33
2018-06-13T19:52:50.424Z,10.53
2018-06-13T19:55:25.432Z,11.97
2018-06-13T19:57:55.556Z,11.47
2018-06-13T20:00:25.703Z,11.00
2018-06-13T20:03:00.766Z,10.40
2018-06-13T20:05:35.796Z,13.60
2018-06-13T20:08:05.955Z,10.07
2018-06-13T20:10:36.209Z,12.50
2018-06-13T20:13:11.346Z,10.17
2018-06-13T20:15:46.280Z,9.53
2018-06-13T20:18:22.316Z,14.30
2018-06-13T20:20:53.269Z,12.00
2018-06-13T20:23:23.669Z,9.83
2018-06-13T20:25:58.637Z,12.57
2018-06-13T20:28:33.499Z,10.47
2018-06-13T20:31:08.794Z,11.80
2018-06-13T20:33:38.903Z,13.30
2018-06-13T20:36:09.236Z,16.60
2018-06-13T20:38:39.562Z,47.80
2018-06-13T20:41:09.893Z,14.20
2018-06-13T20:43:41.008Z,12.47
2018-06-13T20:46:11.429Z,12.67
2018-06-13T20:48:42.727Z,15.40
2018-06-13T20:51:12.950Z,11.10
2018-06-13T20:53:43.151Z,13.93
2018-06-13T20:56:13.392Z,12.73
2018-06-13T20:58:43.662Z,14.40
2018-06-13T21:01:13.728Z,15.30
2018-06-13T21:03:43.808Z,12.27
2018-06-13T21:06:13.974Z,13.37
2018-06-13T21:08:45.358Z,17.20
2018-06-13T21:11:15.639Z,14.27
2018-06-13T21:13:45.990Z,13.80
2018-06-13T21:16:16.556Z,12.67
2018-06-13T21:18:46.932Z,10.97
2018-06-13T21:21:17.114Z,12.53
2018-06-13T21:23:47.309Z,11.83
2018-06-13T21:26:17.603Z,13.73
2018-06-13T21:28:48.857Z,11.73
2018-06-13T21:31:18.872Z,14.27
2018-06-13T21:33:49.104Z,14.33
2018-06-13T21:36:19.556Z,13.33
2018-06-13T21:38:49.460Z,13.27
2018-06-13T21:41:19.638Z,12.07
2018-06-13T21:43:50.428Z,12.83
2018-06-13T21:46:20.590Z,13.70
2018-06-13T21:48:50.559Z,11.80
2018-06-13T21:51:20.700Z,12.80
2018-06-13T21:53:50.920Z,14.40
2018-06-13T21:56:20.991Z,13.83
2018-06-13T21:58:51.164Z,12.73
2018-06-13T22:01:21.373Z,15.40
2018-06-13T22:03:51.727Z,10.17
2018-06-13T22:06:22.845Z,13.57
2018-06-13T22:08:52.774Z,12.17
2018-06-13T22:11:22.789Z,13.13
2018-06-13T22:13:53.066Z,11.80
2018-06-13T22:16:23.232Z,13.07
2018-06-13T22:18:53.491Z,9.70
2018-06-13T22:21:23.732Z,10.43
2018-06-13T22:23:53.751Z,9.73
2018-06-13T22:26:23.970Z,11.80
2018-06-13T22:28:54.137Z,9.37
2018-06-13T22:31:24.145Z,11.20
2018-06-13T22:33:54.350Z,11.00
2018-06-13T22:36:24.364Z,10.40
2018-06-13T22:38:54.222Z,11.60
2018-06-13T22:41:24.290Z,12.50
2018-06-13T22:43:54.577Z,11.87
2018-06-13T22:46:24.741Z,10.93
2018-06-13T22:48:54.731Z,11.83
2018-06-13T22:51:25.992Z,10.30
2018-06-13T22:53:56.252Z,10.63
2018-06-13T22:56:26.792Z,12.17
2018-06-13T22:58:57.029Z,12.17
2018-06-13T23:01:27.267Z,11.60
2018-06-13T23:03:57.182Z,10.90
2018-06-13T23:06:27.441Z,9.77
2018-06-13T23:08:58.642Z,12.27
2018-06-13T23:11:28.786Z,10.23
2018-06-13T23:14:00.032Z,10.73
2018-06-13T23:16:30.180Z,11.13
2018-06-13T23:19:00.272Z,12.37
2018-06-13T23:21:30.501Z,11.00
2018-06-13T23:24:00.343Z,9.20
2018-06-13T23:26:30.414Z,11.60
2018-06-13T23:29:00.691Z,8.93
2018-06-13T23:31:30.763Z,10.03
2018-06-13T23:34:01.148Z,8.83
2018-06-13T23:36:31.296Z,9.23
2018-06-13T23:39:01.403Z,8.10
2018-06-13T23:41:31.427Z,8.43
2018-06-13T23:44:01.496Z,8.90
2018-06-13T23:46:31.811Z,8.00
2018-06-13T23:49:01.821Z,6.60
2018-06-13T23:51:31.721Z,7.43
2018-06-13T23:54:01.865Z,7.47
2018-06-13T23:56:31.712Z,6.47
2018-06-13T23:59:01.829Z,11.40
